Latest Weather Observations for Redesdale

IDV60801

Issued at 8:05 pm EST Saturday 30 August 2014 (issued every 30 minutes, with the page automatically refreshed every 10 minutes)

About weather observations | Map of weather stations | Latest weather observations for VIC | Other Formats
Station Details ID: 088051 Name: REDESDALE Lat: -37.02 Lon: 144.52 Height: 290.0 m
Data from the previous 72 hours. | See also: Recent months at Redesdale
Date/Time
EST
Temp
°C
App
Temp
°C
Dew
Point
Rel
Hum
%
Delta-T
°C
Wind Press
QNH
hPa
Press
MSL
hPa
Rain
since 9 am
mm
Dir
 
Spd
km/h
Gust
km/h
Spd
kts
Gust
kts
30/08:00pm 7.5 5.4 5.8 89 0.8 SSE 6 6 3 3 - - 0.0
30/07:30pm 8.2 6.6 6.2 87 0.9 NNE 4 7 2 4 - - 0.0
30/07:00pm 10.2 9.0 6.5 78 1.8 NNE 2 4 1 2 - - 0.0
30/06:30pm 11.8 10.7 6.7 71 2.5 NNE 2 2 1 1 - - 0.0
30/06:00pm 13.8 13.2 7.6 66 3.1 CALM 0 2 0 1 - - 0.0
30/05:30pm 15.2 13.4 7.3 59 4.0 N 6 7 3 4 - - 0.0
30/05:00pm 16.4 14.4 7.3 55 4.6 NNE 7 15 4 8 - - 0.0
30/04:30pm 16.9 14.7 7.8 55 4.7 N 9 17 5 9 - - 0.0
30/04:00pm 17.5 15.3 7.8 53 5.0 NNE 9 17 5 9 - - 0.0
30/03:30pm 17.4 14.8 7.7 53 5.0 N 11 19 6 10 - - 0.0
30/03:00pm 18.0 15.1 8.3 53 5.1 N 13 19 7 10 - - 0.0
30/02:30pm 17.9 15.5 8.7 55 4.8 N 11 19 6 10 - - 0.0
30/02:00pm 18.1 15.3 8.7 54 4.9 N 13 20 7 11 - - 0.0
30/01:30pm 17.3 14.5 8.4 56 4.6 N 13 19 7 10 - - 0.0
30/01:00pm 16.7 14.1 7.6 55 4.6 N 11 19 6 10 - - 0.0
30/12:30pm 16.4 14.3 8.1 58 4.3 N 9 15 5 8 - - 0.0
30/12:00pm 16.2 14.3 8.9 62 3.8 N 9 17 5 9 - - 0.0
30/11:30am 15.6 13.6 8.6 63 3.6 NNE 9 15 5 8 - - 0.0
30/11:00am 15.1 13.1 8.6 65 3.3 NNE 9 13 5 7 - - 0.0
30/10:30am 14.1 12.1 8.7 70 2.8 N 9 15 5 8 - - 0.0
30/10:00am 13.2 11.7 8.5 73 2.4 NNE 6 9 3 5 - - 0.0
30/09:30am 12.0 10.4 8.1 77 1.9 NE 6 7 3 4 - - 0.0
30/09:00am 12.2 12.1 9.4 83 1.4 S 0 2 0 1 - - 0.0
30/08:30am 9.1 8.0 8.6 97 0.2 SSW 4 6 2 3 - - 0.0
30/08:00am 6.7 4.8 6.6 99 0.0 SSW 6 7 3 4 - - 0.0
30/07:30am 4.5 1.6 4.4 99 0.0 SW 9 11 5 6 - - 0.0
30/07:00am 3.3 0.1 3.2 99 0.0 SW 9 11 5 6 - - 0.0
30/06:30am 3.4 -0.1 3.3 99 0.0 S 11 13 6 7 - - 0.0
30/06:00am 2.7 -0.6 2.6 99 0.0 S 9 13 5 7 - - 0.0
30/05:30am 3.1 0.8 2.8 98 0.1 SSW 4 7 2 4 - - 0.0
30/05:00am 4.3 3.0 4.0 98 0.1 CALM 0 4 0 2 - - 0.0
30/04:30am 5.3 2.8 5.0 98 0.1 SSW 7 11 4 6 - - 0.0
30/04:00am 4.9 2.0 4.5 97 0.2 SSW 9 11 5 6 - - 0.0
30/03:30am 5.7 2.2 5.3 97 0.2 SSW 13 15 7 8 - - 0.0
30/03:00am 6.1 2.7 5.8 98 0.1 S 13 17 7 9 - - 0.0
30/02:30am 5.3 2.4 4.9 97 0.2 SSW 9 11 5 6 - - 0.0
30/02:00am 5.8 3.1 5.4 97 0.2 SW 9 11 5 6 - - 0.0
30/01:30am 6.5 3.9 6.1 97 0.2 S 9 11 5 6 - - 0.0
30/01:00am 5.4 2.9 4.7 95 0.3 SSW 7 9 4 5 - - 0.0
30/12:30am 6.5 5.2 5.8 95 0.3 SSE 2 6 1 3 - - 0.0
30/12:00am 6.8 4.2 5.9 94 0.4 S 9 11 5 6 - - 0.0
 
Date/Time
EST
Temp
°C
App
Temp
°C
Dew
Point
Rel
Hum
%
Delta-T
°C
Wind Press
QNH
hPa
Press
MSL
hPa
Rain
since 9 am
mm
Dir
 
Spd
km/h
Gust
km/h
Spd
kts
Gust
kts
29/11:30pm 7.2 5.0 6.0 92 0.6 SSW 7 9 4 5 - - 0.0
29/11:00pm 8.2 5.4 6.8 91 0.7 S 11 17 6 9 - - 0.0
29/10:30pm 7.9 4.6 6.5 91 0.7 S 13 17 7 9 - - 0.0
29/10:00pm 8.3 5.1 6.9 91 0.7 S 13 17 7 9 - - 0.0
29/09:30pm 8.1 4.8 6.6 90 0.7 S 13 19 7 10 - - 0.0
29/09:00pm 8.1 4.8 6.4 89 0.8 S 13 20 7 11 - - 0.0
29/08:30pm 8.5 4.5 6.5 87 0.9 S 17 22 9 12 - - 0.0
29/08:00pm 8.9 4.9 6.7 86 1.0 S 17 22 9 12 - - 0.0
29/07:30pm 9.1 4.7 6.7 85 1.1 S 19 24 10 13 - - 0.0
29/07:00pm 9.1 5.1 6.5 84 1.2 S 17 22 9 12 - - 0.0
29/06:30pm 9.7 5.7 6.8 82 1.4 S 17 20 9 11 - - 0.0
29/06:00pm 10.1 6.5 6.8 80 1.6 SSE 15 20 8 11 - - 0.0
29/05:30pm 11.6 8.1 7.1 74 2.2 S 15 20 8 11 - - 0.0
29/05:00pm 13.2 9.4 7.6 69 2.8 S 17 20 9 11 - - 0.0
29/04:30pm 14.5 10.7 7.5 63 3.5 S 17 24 9 13 - - 0.0
29/04:00pm 15.3 11.4 7.3 59 4.0 S 17 22 9 12 - - 0.0
29/03:30pm 16.6 14.2 8.8 60 4.1 S 11 19 6 10 - - 0.0
29/03:00pm 17.0 14.8 9.4 61 4.0 SSE 11 17 6 9 - - 0.0
29/02:30pm 17.3 15.4 9.2 59 4.3 SE 9 13 5 7 - - 0.0
29/02:00pm 18.1 16.1 10.0 59 4.4 SE 11 19 6 10 - - 0.0
29/01:30pm 18.0 16.4 8.0 52 5.2 ESE 6 15 3 8 - - 0.0
29/01:00pm 17.9 16.5 7.3 50 5.4 SE 4 11 2 6 - - 0.0
29/12:30pm 17.4 15.7 7.5 52 5.1 SE 6 9 3 5 - - 0.0
29/12:00pm 17.0 15.2 7.1 52 5.0 S 6 9 3 5 - - 0.0
29/11:30am 16.8 14.9 7.4 54 4.8 SSE 7 9 4 5 - - 0.0
29/11:00am 15.6 13.9 7.4 58 4.1 S 6 7 3 4 - - 0.0
29/10:30am 16.2 15.0 8.2 59 4.1 SSW 4 9 2 5 - - 0.0
29/10:00am 14.8 13.3 8.3 65 3.3 S 6 7 3 4 - - 0.0
29/09:30am 13.8 12.5 9.3 74 2.3 S 6 9 3 5 - - 0.0
29/09:00am 12.4 11.7 10.1 86 1.2 SSW 4 6 2 3 - - 0.0
29/08:30am 9.4 8.8 8.8 96 0.3 SSW 2 4 1 2 - - 0.0
29/08:00am 7.1 6.0 7.0 99 0.0 SSW 2 4 1 2 - - 0.0
29/07:30am 4.7 2.2 4.6 99 0.0 SSW 7 9 4 5 - - 0.0
29/07:00am 4.1 1.5 4.0 99 0.0 SSW 7 9 4 5 - - 0.0
29/06:30am 4.2 1.6 4.1 99 0.0 SSW 7 9 4 5 - - 0.0
29/06:00am 3.4 0.6 3.3 99 0.0 SSW 7 9 4 5 - - 0.0
29/05:30am 4.2 0.8 4.1 99 0.0 S 11 13 6 7 - - 0.0
29/05:00am 4.4 1.4 4.1 98 0.1 S 9 13 5 7 - - 0.0
29/04:30am 4.1 1.0 3.7 97 0.2 SSW 9 13 5 7 - - 0.0
29/04:00am 5.4 2.2 5.1 98 0.1 S 11 13 6 7 - - 0.0
29/03:30am 5.6 2.4 5.3 98 0.1 S 11 13 6 7 - - 0.0
29/03:00am 4.5 1.5 4.2 98 0.1 S 9 11 5 6 - - 0.0
29/02:30am 4.6 1.6 4.2 97 0.2 SSW 9 13 5 7 - - 0.0
29/02:00am 4.8 2.4 4.2 96 0.3 S 6 7 3 4 - - 0.0
29/01:30am 5.4 3.1 4.8 96 0.3 S 6 7 3 4 - - 0.0
29/01:00am 4.9 1.9 4.3 96 0.3 SSW 9 11 5 6 - - 0.0
29/12:30am 5.1 2.5 4.4 95 0.3 SSW 7 9 4 5 - - 0.0
29/12:00am 5.2 3.2 4.2 93 0.4 SSW 4 6 2 3 - - 0.0
 
Date/Time
EST
Temp
°C
App
Temp
°C
Dew
Point
Rel
Hum
%
Delta-T
°C
Wind Press
QNH
hPa
Press
MSL
hPa
Rain
since 9 am
mm
Dir
 
Spd
km/h
Gust
km/h
Spd
kts
Gust
kts
28/11:30pm 5.9 3.5 4.5 91 0.6 SSW 6 7 3 4 - - 0.0
28/11:00pm 6.6 3.7 4.9 89 0.8 SSW 9 9 5 5 - - 0.0
28/10:30pm 7.3 4.6 5.4 88 0.9 S 9 11 5 6 - - 0.0
28/10:00pm 8.1 5.1 5.9 86 1.0 S 11 13 6 7 - - 0.0
28/09:30pm 8.1 4.8 6.4 89 0.8 S 13 15 7 8 - - 0.0
28/09:00pm 7.0 4.2 5.0 87 0.9 S 9 11 5 6 - - 0.0
28/08:30pm 8.2 5.6 6.0 86 1.0 S 9 9 5 5 - - 0.0
28/08:00pm 8.3 5.7 6.1 86 1.0 S 9 13 5 7 - - 0.0
28/07:30pm 8.7 7.8 6.0 83 1.3 CALM 0 0 0 0 - - 0.0
28/07:00pm 10.4 9.4 5.8 73 2.2 CALM 0 0 0 0 - - 0.0
28/06:30pm 13.2 12.4 6.5 64 3.3 CALM 0 2 0 1 - - 0.0
28/06:00pm 15.0 13.8 6.6 57 4.1 N 2 2 1 1 - - 0.0
28/05:30pm 16.1 14.5 6.5 53 4.8 N 4 7 2 4 - - 0.0
28/05:00pm 17.6 15.5 5.9 46 5.8 N 6 7 3 4 - - 0.0
28/04:30pm 18.4 16.3 5.9 44 6.2 N 6 7 3 4 - - 0.0
28/04:00pm 18.6 16.5 5.8 43 6.4 NNE 6 7 3 4 - - 0.0
28/03:30pm 18.8 16.7 6.0 43 6.4 N 6 9 3 5 - - 0.0
28/03:00pm 19.0 16.9 6.5 44 6.3 NE 7 11 4 6 - - 0.0
28/02:30pm 18.8 16.6 6.0 43 6.4 N 7 11 4 6 - - 0.0
28/02:00pm 19.0 16.9 5.8 42 6.6 NNW 6 11 3 6 - - 0.0
28/01:30pm 18.5 16.2 5.0 41 6.6 N 6 11 3 6 - - 0.0
28/01:00pm 18.4 16.2 5.3 42 6.5 N 6 9 3 5 - - 0.0
28/12:30pm 17.9 15.7 6.1 46 5.9 N 7 11 4 6 - - 0.0
28/12:00pm 17.7 15.7 6.3 47 5.7 N 6 11 3 6 - - 0.0
28/11:30am 17.3 15.4 7.6 53 5.0 NNE 7 13 4 7 - - 0.0
28/11:00am 16.6 15.0 8.1 57 4.4 NNE 6 11 3 6 - - 0.0
28/10:30am 15.5 13.5 7.3 58 4.1 NNE 7 9 4 5 - - 0.0
28/10:00am 15.6 14.4 7.9 60 3.9 SE 4 7 2 4 - - 0.0
28/09:30am 14.5 13.5 8.7 68 3.0 S 4 4 2 2 - - 0.0
28/09:00am 12.4 12.1 8.5 77 2.0 CALM 0 2 0 1 - - 0.2
28/08:30am 10.1 8.8 7.5 84 1.3 SSW 4 6 2 3 - - -
28/08:00am 6.9 4.8 6.0 94 0.4 SSW 6 7 3 4 - - -
28/07:30am 4.2 1.4 2.9 91 0.5 S 7 9 4 5 - - -
28/07:00am 3.5 0.8 2.9 96 0.2 SSW 6 7 3 4 - - -
28/06:30am 3.5 1.2 2.8 95 0.3 S 4 6 2 3 - - -
28/06:00am 3.8 2.3 3.1 95 0.3 CALM 0 0 0 0 - - -
28/05:30am 3.8 1.9 2.9 94 0.4 SSW 2 6 1 3 - - -
28/05:00am 3.4 1.1 2.5 94 0.4 SSW 4 6 2 3 - - -
28/04:30am 3.7 1.0 2.7 93 0.4 SSW 6 9 3 5 - - -
28/04:00am 4.2 1.9 2.7 90 0.6 SSW 4 6 2 3 - - -
28/03:30am 5.1 2.6 3.8 91 0.6 S 6 9 3 5 - - -
28/03:00am 4.5 1.9 3.2 91 0.5 SSW 6 7 3 4 - - -
28/02:30am 5.4 3.0 4.1 91 0.6 SSW 6 9 3 5 - - -
28/02:00am 6.0 3.6 4.2 88 0.8 S 6 9 3 5 - - -
28/01:30am 6.4 3.5 4.4 87 0.9 SSW 9 13 5 7 - - -
28/01:00am 6.3 2.9 4.1 86 1.0 S 11 15 6 8 - - -
28/12:30am 6.3 3.4 4.8 90 0.7 S 9 15 5 8 - - -
28/12:00am 6.4 3.2 4.9 90 0.7 SSW 11 13 6 7 - - -
 
Date/Time
EST
Temp
°C
App
Temp
°C
Dew
Point
Rel
Hum
%
Delta-T
°C
Wind Press
QNH
hPa
Press
MSL
hPa
Rain
since 9 am
mm
Dir
 
Spd
km/h
Gust
km/h
Spd
kts
Gust
kts
27/11:30pm 7.3 4.5 5.3 87 0.9 S 9 13 5 7 - - -
27/11:00pm 7.2 4.0 5.3 88 0.9 SSW 11 13 6 7 - - -
27/10:00pm 9.8 - 6.9 82 1.4 - - - - - - - -
27/09:30pm 9.4 6.2 6.8 84 1.2 SSW 13 15 7 8 - - 0.2
27/09:00pm 9.7 6.1 6.6 81 1.5 SSW 15 19 8 10 - - 0.2
27/08:30pm 9.6 7.1 6.7 82 1.4 SSW 9 13 5 7 - - 0.2

Other Formats:

Comma delimited format used in spreadsheet applications
http://www.bom.gov.au/fwo/IDV60801/IDV60801.94859.axf

JavaScript Object Notation format (JSON) in row-major order
http://www.bom.gov.au/fwo/IDV60801/IDV60801.94859.json